createdAt,value
2019-06-07T00:01:05.303Z,20.70
2019-06-07T00:03:37.742Z,20.70
2019-06-07T00:06:14.263Z,20.61
2019-06-07T00:08:44.127Z,20.44
2019-06-07T00:11:20.303Z,20.37
2019-06-07T00:13:50.859Z,20.30
2019-06-07T00:16:23.602Z,20.27
2019-06-07T00:18:55.972Z,20.19
2019-06-07T00:22:12.695Z,20.12
2019-06-07T00:24:02.609Z,20.11
2019-06-07T00:26:55.065Z,20.20
2019-06-07T00:29:09.379Z,20.09
2019-06-07T00:31:43.863Z,20.08
2019-06-07T00:34:19.150Z,20.06
2019-06-07T00:36:51.200Z,20.02
2019-06-07T00:39:25.984Z,20.01
2019-06-07T00:41:57.843Z,19.93
2019-06-07T00:44:30.519Z,19.95
2019-06-07T00:47:02.897Z,19.98
2019-06-07T00:49:40.945Z,20.02
2019-06-07T00:52:09.239Z,20.03
2019-06-07T00:54:41.554Z,20.05
2019-06-07T00:57:16.639Z,19.95
2019-06-07T00:59:48.851Z,19.79
2019-06-07T01:02:25.725Z,19.78
2019-06-07T01:04:56.284Z,19.79
2019-06-07T01:07:28.640Z,19.83
2019-06-07T01:10:01.719Z,19.74
2019-06-07T01:12:34.421Z,19.56
2019-06-07T01:15:07.504Z,19.64
2019-06-07T01:18:10.251Z,19.65
2019-06-07T01:20:16.691Z,19.51
2019-06-07T01:22:49.859Z,19.59
2019-06-07T01:25:23.880Z,19.58
2019-06-07T01:27:56.066Z,19.64
2019-06-07T01:30:29.455Z,19.64
2019-06-07T01:33:02.021Z,19.72
2019-06-07T01:35:34.374Z,19.67
2019-06-07T01:38:06.699Z,19.67
2019-06-07T01:40:39.448Z,19.65
2019-06-07T01:43:12.460Z,19.58
2019-06-07T01:45:44.727Z,19.63
2019-06-07T01:48:19.811Z,19.64
2019-06-07T01:50:51.354Z,19.60
2019-06-07T01:53:25.784Z,19.54
2019-06-07T01:55:57.528Z,19.30
2019-06-07T01:58:30.928Z,19.37
2019-06-07T02:01:03.261Z,19.41
2019-06-07T02:03:35.619Z,19.46
2019-06-07T02:06:08.109Z,19.44
2019-06-07T02:08:40.822Z,19.46
2019-06-07T02:11:13.139Z,19.45
2019-06-07T02:13:53.767Z,19.38
2019-06-07T02:16:39.099Z,19.42
2019-06-07T02:19:06.379Z,19.92
2019-06-07T02:21:38.572Z,20.23
2019-06-07T02:24:11.521Z,20.66
2019-06-07T02:26:44.655Z,20.96
2019-06-07T02:29:17.006Z,20.68
2019-06-07T02:31:49.431Z,20.13
2019-06-07T02:34:24.102Z,19.82
2019-06-07T02:36:56.567Z,19.75
2019-06-07T02:39:34.505Z,19.57
2019-06-07T02:42:03.180Z,19.57
2019-06-07T02:44:39.614Z,19.61
2019-06-07T02:47:10.314Z,19.62
2019-06-07T02:49:44.455Z,19.64
2019-06-07T02:52:16.666Z,19.51
2019-06-07T02:55:06.056Z,19.53
2019-06-07T02:57:41.734Z,19.49
2019-06-07T03:00:41.860Z,19.46
2019-06-07T03:02:49.047Z,19.50
2019-06-07T03:05:21.285Z,19.52
2019-06-07T03:07:57.207Z,19.51
2019-06-07T03:10:34.784Z,19.50
2019-06-07T03:13:10.522Z,19.54
2019-06-07T03:15:50.166Z,19.51
2019-06-07T03:18:41.718Z,19.61
2019-06-07T03:21:15.647Z,19.62
2019-06-07T03:23:49.138Z,19.62
2019-06-07T03:26:25.336Z,19.63
2019-06-07T03:29:02.654Z,19.63
2019-06-07T03:31:43.385Z,19.60
2019-06-07T03:34:08.754Z,19.66
2019-06-07T03:36:40.992Z,19.71
2019-06-07T03:39:14.010Z,19.65
2019-06-07T03:42:04.817Z,19.70
2019-06-07T03:44:20.260Z,19.76
2019-06-07T03:46:52.709Z,19.78
2019-06-07T03:49:31.504Z,19.84
2019-06-07T03:52:03.981Z,19.88
2019-06-07T03:54:38.406Z,19.93
2019-06-07T03:57:13.064Z,19.99
2019-06-07T03:59:50.946Z,19.99
2019-06-07T04:02:23.188Z,20.08
2019-06-07T04:05:20.333Z,20.15
2019-06-07T04:08:16.102Z,20.25
2019-06-07T04:14:03.537Z,20.38
2019-06-07T04:16:40.969Z,20.41
2019-06-07T04:19:14.113Z,20.49
2019-06-07T04:21:47.487Z,20.50
2019-06-07T04:24:19.917Z,20.59
2019-06-07T04:26:52.146Z,20.70
2019-06-07T04:29:33.226Z,20.63
2019-06-07T04:31:59.414Z,20.70
2019-06-07T04:34:34.991Z,20.72
2019-06-07T04:37:07.350Z,20.91
2019-06-07T04:39:45.101Z,20.89
2019-06-07T04:42:17.779Z,20.98
2019-06-07T04:44:53.396Z,21.05
2019-06-07T04:47:26.978Z,21.12
2019-06-07T04:50:03.629Z,21.16
2019-06-07T04:52:40.574Z,21.17
2019-06-07T04:55:10.615Z,21.26
2019-06-07T04:57:43.423Z,21.30
2019-06-07T05:00:48.703Z,21.35
2019-06-07T05:02:52.760Z,21.40
2019-06-07T05:05:25.014Z,21.47
2019-06-07T05:07:57.147Z,21.45
2019-06-07T05:10:30.737Z,21.56
2019-06-07T05:13:14.298Z,21.63
2019-06-07T05:15:46.560Z,21.68
2019-06-07T05:18:18.756Z,21.74
2019-06-07T05:20:52.559Z,21.83
2019-06-07T05:24:02.470Z,21.89
2019-06-07T05:26:02.854Z,21.95
2019-06-07T05:28:37.871Z,21.97
2019-06-07T05:31:11.602Z,22.05
2019-06-07T05:33:48.578Z,22.17
2019-06-07T05:36:27.619Z,22.34
2019-06-07T05:39:17.483Z,22.60
2019-06-07T05:41:49.680Z,22.72
2019-06-07T05:44:22.178Z,22.90
2019-06-07T05:46:56.228Z,22.97
2019-06-07T05:49:29.405Z,23.08
2019-06-07T05:52:04.656Z,23.19
2019-06-07T05:54:38.229Z,23.32
2019-06-07T05:57:10.858Z,23.35
2019-06-07T05:59:45.025Z,23.40
2019-06-07T06:02:22.630Z,23.52
2019-06-07T06:04:50.813Z,23.62
2019-06-07T06:07:23.094Z,23.61
2019-06-07T06:09:55.333Z,23.65
2019-06-07T06:12:35.289Z,23.69
2019-06-07T06:15:03.182Z,23.70
2019-06-07T06:17:37.703Z,23.77
2019-06-07T06:20:09.799Z,23.83
2019-06-07T06:22:44.830Z,23.85
2019-06-07T06:25:34.397Z,23.96
2019-06-07T06:28:12.498Z,24.15
2019-06-07T06:30:30.352Z,24.16
2019-06-07T06:33:05.310Z,24.18
2019-06-07T06:35:39.809Z,24.17
2019-06-07T06:38:12.484Z,24.20
2019-06-07T06:40:49.065Z,24.29
2019-06-07T06:43:21.997Z,24.24
2019-06-07T06:45:55.474Z,24.31
2019-06-07T06:48:27.791Z,24.34
2019-06-07T06:51:00.217Z,24.44
2019-06-07T06:53:33.412Z,24.50
2019-06-07T06:56:05.818Z,24.71
2019-06-07T06:59:21.872Z,24.87
2019-06-07T07:01:14.013Z,24.99
2019-06-07T07:04:07.279Z,25.21
2019-06-07T07:06:26.350Z,25.31
2019-06-07T07:08:58.693Z,25.30
2019-06-07T07:12:01.368Z,25.66
2019-06-07T07:14:21.302Z,25.58
2019-06-07T07:16:56.534Z,25.62
2019-06-07T07:19:33.792Z,25.69
2019-06-07T07:22:11.753Z,25.72
2019-06-07T07:24:51.782Z,25.83
2019-06-07T07:27:23.109Z,25.75
2019-06-07T07:30:34.240Z,25.90
2019-06-07T07:32:29.961Z,26.02
2019-06-07T07:35:04.208Z,25.87
2019-06-07T07:37:37.472Z,25.65
2019-06-07T07:40:55.493Z,25.51
2019-06-07T07:42:46.907Z,25.54
2019-06-07T07:45:18.958Z,25.46
2019-06-07T07:48:08.649Z,25.54
2019-06-07T07:50:26.257Z,25.53
2019-06-07T07:53:00.495Z,25.59
2019-06-07T07:55:33.083Z,25.56
2019-06-07T07:58:06.612Z,25.54
2019-06-07T08:01:00.699Z,25.63
2019-06-07T08:03:39.827Z,25.75
2019-06-07T08:06:13.199Z,26.04
2019-06-07T08:08:55.737Z,26.43
2019-06-07T08:11:27.139Z,26.76
2019-06-07T08:14:01.546Z,26.91
2019-06-07T08:16:34.505Z,26.75
2019-06-07T08:19:07.835Z,26.71
2019-06-07T08:21:40.149Z,26.43
2019-06-07T08:24:18.371Z,26.05
2019-06-07T08:27:12.306Z,26.31
2019-06-07T08:29:44.244Z,26.51
2019-06-07T08:32:06.293Z,26.67
2019-06-07T08:34:40.381Z,26.69
2019-06-07T08:37:13.767Z,26.60
2019-06-07T08:39:46.340Z,26.63
2019-06-07T08:42:36.487Z,26.38
2019-06-07T08:45:03.655Z,26.35
2019-06-07T08:47:31.983Z,26.46
2019-06-07T08:50:07.951Z,26.37
2019-06-07T08:52:40.415Z,26.03
2019-06-07T08:55:14.440Z,25.95
2019-06-07T08:57:48.830Z,26.06
2019-06-07T09:03:03.429Z,26.06
2019-06-07T09:05:32.402Z,25.94
2019-06-07T09:08:28.258Z,25.93
2019-06-07T09:10:39.563Z,25.75
2019-06-07T09:13:12.241Z,25.74
2019-06-07T09:15:47.025Z,25.79
2019-06-07T09:18:41.294Z,25.76
2019-06-07T09:21:01.167Z,25.63
2019-06-07T09:23:35.670Z,25.61
2019-06-07T09:26:17.964Z,25.64
2019-06-07T09:28:46.150Z,25.39
2019-06-07T09:31:18.481Z,25.23
2019-06-07T09:33:59.788Z,25.09
2019-06-07T09:36:27.132Z,25.00
2019-06-07T09:39:06.442Z,25.01
2019-06-07T09:41:47.651Z,24.99
2019-06-07T09:44:25.827Z,25.05
2019-06-07T09:47:14.183Z,25.06
2019-06-07T09:49:33.061Z,25.23
2019-06-07T09:52:11.042Z,25.42
2019-06-07T09:57:19.943Z,25.55
2019-06-07T09:59:52.670Z,25.70
2019-06-07T10:02:26.147Z,25.79
2019-06-07T10:05:05.221Z,26.01
2019-06-07T10:07:37.652Z,26.13
2019-06-07T10:12:46.081Z,25.81
2019-06-07T10:15:18.671Z,25.37
2019-06-07T10:17:51.075Z,25.24
2019-06-07T10:20:24.552Z,25.33
2019-06-07T10:22:56.925Z,25.29
2019-06-07T10:25:31.449Z,25.35
2019-06-07T10:28:04.060Z,25.16
2019-06-07T10:30:38.257Z,25.09
2019-06-07T10:33:10.741Z,25.24
2019-06-07T10:35:46.200Z,25.25
2019-06-07T10:38:18.735Z,25.29
2019-06-07T10:40:51.042Z,25.16
2019-06-07T10:43:25.524Z,25.17
2019-06-07T10:45:57.731Z,25.33
2019-06-07T10:48:33.467Z,25.43
2019-06-07T10:51:08.599Z,25.65
2019-06-07T10:53:47.995Z,25.69
2019-06-07T10:56:21.797Z,25.91
2019-06-07T10:58:54.114Z,26.08
2019-06-07T11:01:29.675Z,26.45
2019-06-07T11:04:03.471Z,26.50
2019-06-07T11:06:43.931Z,26.45
2019-06-07T11:09:22.042Z,26.16
2019-06-07T11:11:55.568Z,26.37
2019-06-07T11:14:27.899Z,26.14
2019-06-07T11:17:00.270Z,26.07
2019-06-07T11:19:34.236Z,26.50
2019-06-07T11:22:07.937Z,26.76
2019-06-07T11:24:41.019Z,27.07
2019-06-07T11:27:16.574Z,27.14
2019-06-07T11:29:49.159Z,27.19
2019-06-07T11:32:22.711Z,27.61
2019-06-07T11:34:55.399Z,27.51
2019-06-07T11:37:28.772Z,27.73
2019-06-07T11:40:01.147Z,27.87
2019-06-07T11:42:33.602Z,27.99
2019-06-07T11:45:07.931Z,28.17
2019-06-07T11:47:40.652Z,28.91
2019-06-07T11:50:17.649Z,28.91
2019-06-07T11:52:49.989Z,28.98
2019-06-07T11:55:22.270Z,29.06
2019-06-07T11:57:54.819Z,29.01
2019-06-07T12:00:28.818Z,29.06
2019-06-07T12:03:01.432Z,29.27
2019-06-07T12:05:33.898Z,29.40
2019-06-07T12:08:07.967Z,28.86
2019-06-07T12:10:46.702Z,28.82
2019-06-07T12:13:22.413Z,28.50
2019-06-07T12:15:55.209Z,28.67
2019-06-07T12:18:27.606Z,28.66
2019-06-07T12:21:01.381Z,28.58
2019-06-07T12:23:41.353Z,28.54
2019-06-07T12:26:14.664Z,28.51
2019-06-07T12:28:49.193Z,28.47
2019-06-07T12:31:23.858Z,28.62
2019-06-07T12:33:57.801Z,29.05
2019-06-07T12:36:32.510Z,29.14
2019-06-07T12:39:08.286Z,29.43
2019-06-07T12:41:41.699Z,29.51
2019-06-07T12:44:14.637Z,29.51
2019-06-07T12:46:47.177Z,29.75
2019-06-07T12:49:21.177Z,29.88
2019-06-07T12:52:01.177Z,29.92
2019-06-07T12:54:34.427Z,29.81
2019-06-07T12:57:08.054Z,29.53
2019-06-07T12:59:41.870Z,29.80
2019-06-07T13:02:16.234Z,29.30
2019-06-07T13:04:50.763Z,29.14
2019-06-07T13:07:25.120Z,29.13
2019-06-07T13:09:58.761Z,29.09
2019-06-07T13:12:32.190Z,29.23
2019-06-07T13:15:08.710Z,29.68
2019-06-07T13:17:41.156Z,29.65
2019-06-07T13:20:16.137Z,29.62
2019-06-07T13:22:54.028Z,29.33
2019-06-07T13:25:45.944Z,29.06
2019-06-07T13:28:11.449Z,28.76
2019-06-07T13:30:47.589Z,28.51
2019-06-07T13:33:21.508Z,28.46
2019-06-07T13:35:54.207Z,28.40
2019-06-07T13:38:28.884Z,28.52
2019-06-07T13:41:04.892Z,28.81
2019-06-07T13:43:37.587Z,28.77
2019-06-07T13:46:13.048Z,28.81
2019-06-07T13:48:45.109Z,28.64
2019-06-07T13:51:19.203Z,28.56
2019-06-07T13:53:52.584Z,28.58
2019-06-07T13:56:26.044Z,28.48
2019-06-07T13:59:01.796Z,28.37
2019-06-07T14:01:34.287Z,28.30
2019-06-07T14:04:08.085Z,28.16
2019-06-07T14:06:41.223Z,28.08
2019-06-07T14:09:15.948Z,27.98
2019-06-07T14:11:50.969Z,27.85
2019-06-07T14:14:27.452Z,27.71
2019-06-07T14:17:00.437Z,27.50
2019-06-07T14:19:33.627Z,27.18
2019-06-07T14:25:00.289Z,27.33
2019-06-07T14:27:32.700Z,27.35
2019-06-07T14:30:10.799Z,27.45
2019-06-07T14:32:43.056Z,27.52
2019-06-07T14:35:15.310Z,27.45
2019-06-07T14:37:47.758Z,27.43
2019-06-07T14:40:23.408Z,27.40
2019-06-07T14:42:55.636Z,27.29
2019-06-07T14:45:27.834Z,27.27
2019-06-07T14:48:00.200Z,26.15
2019-06-07T14:50:32.827Z,26.15
2019-06-07T14:53:06.183Z,24.81
2019-06-07T14:55:39.115Z,23.61
2019-06-07T14:58:11.585Z,23.05
2019-06-07T15:00:45.168Z,22.51
2019-06-07T15:03:17.533Z,22.45
2019-06-07T15:05:50.119Z,22.39
2019-06-07T15:08:22.973Z,22.29
2019-06-07T15:10:55.251Z,22.26
2019-06-07T15:13:29.424Z,22.24
2019-06-07T15:16:02.259Z,22.26
2019-06-07T15:18:38.001Z,22.35
2019-06-07T15:21:12.766Z,22.46
2019-06-07T15:23:47.638Z,22.62
2019-06-07T15:26:19.854Z,22.72
2019-06-07T15:28:52.265Z,22.86
2019-06-07T15:31:24.462Z,23.19
2019-06-07T15:33:57.626Z,24.15
2019-06-07T15:36:30.273Z,25.46
2019-06-07T15:39:02.825Z,26.66
2019-06-07T15:41:39.622Z,27.60
2019-06-07T15:44:12.499Z,28.29
2019-06-07T15:46:45.747Z,28.73
2019-06-07T15:49:20.910Z,28.37
2019-06-07T15:51:53.314Z,27.75
2019-06-07T15:54:27.077Z,26.55
2019-06-07T15:56:59.314Z,26.15
2019-06-07T15:59:33.099Z,25.81
2019-06-07T16:02:05.710Z,25.62
2019-06-07T16:04:39.668Z,25.62
2019-06-07T16:07:12.096Z,25.37
2019-06-07T16:09:44.564Z,25.15
2019-06-07T16:12:16.974Z,25.03
2019-06-07T16:14:49.212Z,24.99
2019-06-07T16:17:35.015Z,24.89
2019-06-07T16:20:07.881Z,24.93
2019-06-07T16:23:00.943Z,24.76
2019-06-07T16:25:33.937Z,24.73
2019-06-07T16:28:06.830Z,24.79
2019-06-07T16:30:40.623Z,24.68
2019-06-07T16:33:25.526Z,24.65
2019-06-07T16:36:02.273Z,24.68
2019-06-07T16:38:36.244Z,24.82
2019-06-07T16:41:08.786Z,24.82
2019-06-07T16:43:42.551Z,24.83
2019-06-07T16:46:17.565Z,24.90
2019-06-07T16:48:49.845Z,24.88
2019-06-07T16:51:22.333Z,24.93
2019-06-07T16:53:55.466Z,25.03
2019-06-07T16:56:27.771Z,24.91
2019-06-07T16:59:00.422Z,24.93
2019-06-07T17:01:32.919Z,24.94
2019-06-07T17:04:07.189Z,25.01
2019-06-07T17:06:43.733Z,25.00
2019-06-07T17:09:16.884Z,24.96
2019-06-07T17:11:49.256Z,24.97
2019-06-07T17:14:29.194Z,24.96
2019-06-07T17:17:03.798Z,24.96
2019-06-07T17:19:36.092Z,24.94
2019-06-07T17:22:12.334Z,24.97
2019-06-07T17:24:47.651Z,24.99
2019-06-07T17:27:20.260Z,24.95
2019-06-07T17:29:52.948Z,24.89
2019-06-07T17:32:47.747Z,24.88
2019-06-07T17:35:11.600Z,24.86
2019-06-07T17:37:45.838Z,24.82
2019-06-07T17:40:19.952Z,24.74
2019-06-07T17:42:52.430Z,24.68
2019-06-07T17:45:24.799Z,24.62
2019-06-07T17:47:57.177Z,24.61
2019-06-07T17:50:29.469Z,24.55
2019-06-07T17:53:01.939Z,24.49
2019-06-07T17:55:34.170Z,24.47
2019-06-07T17:58:08.522Z,24.44
2019-06-07T18:00:50.855Z,24.42
2019-06-07T18:03:25.220Z,24.42
2019-06-07T18:06:00.622Z,24.41
2019-06-07T18:08:33.309Z,24.24
2019-06-07T18:11:07.750Z,24.42
2019-06-07T18:14:10.012Z,24.37
2019-06-07T18:16:39.281Z,24.33
2019-06-07T18:19:43.148Z,24.27
2019-06-07T18:22:34.091Z,24.29
2019-06-07T18:25:07.549Z,24.34
2019-06-07T18:27:42.228Z,24.38
2019-06-07T18:30:16.413Z,24.44
2019-06-07T18:32:50.737Z,24.46
2019-06-07T18:35:24.469Z,24.50
2019-06-07T18:37:57.202Z,24.48
2019-06-07T18:40:29.857Z,24.47
2019-06-07T18:43:02.369Z,24.47
2019-06-07T18:45:39.843Z,24.48
2019-06-07T18:48:15.858Z,24.45
2019-06-07T18:50:48.575Z,24.40
2019-06-07T18:53:22.484Z,24.47
2019-06-07T18:55:56.393Z,24.40
2019-06-07T18:58:30.814Z,24.24
2019-06-07T19:01:05.473Z,24.17
2019-06-07T19:03:42.376Z,24.04
2019-06-07T19:06:14.898Z,24.07
2019-06-07T19:12:27.841Z,23.98
2019-06-07T19:15:21.262Z,23.97
2019-06-07T19:17:56.155Z,23.97
2019-06-07T19:20:30.188Z,23.99
2019-06-07T19:23:03.290Z,23.99
2019-06-07T19:25:35.876Z,24.02
2019-06-07T19:28:08.319Z,23.96
2019-06-07T19:30:44.897Z,23.89
2019-06-07T19:33:18.504Z,23.88
2019-06-07T19:35:51.390Z,23.93
2019-06-07T19:38:25.435Z,23.76
2019-06-07T19:41:16.504Z,23.64
2019-06-07T19:43:35.348Z,23.62
2019-06-07T19:46:09.785Z,23.50
2019-06-07T19:48:42.387Z,23.41
2019-06-07T19:51:15.376Z,23.51
2019-06-07T19:53:52.870Z,23.53
2019-06-07T19:56:26.766Z,23.47
2019-06-07T19:58:59.725Z,23.43
2019-06-07T20:01:32.162Z,23.19
2019-06-07T20:04:05.236Z,23.36
2019-06-07T20:06:37.714Z,23.26
2019-06-07T20:09:10.380Z,23.22
2019-06-07T20:11:42.980Z,23.17
2019-06-07T20:14:15.502Z,23.39
2019-06-07T20:16:48.003Z,23.28
2019-06-07T20:19:20.469Z,23.34
2019-06-07T20:21:53.073Z,23.35
2019-06-07T20:24:38.148Z,23.22
2019-06-07T20:27:11.638Z,23.18
2019-06-07T20:29:48.301Z,23.01
2019-06-07T20:32:20.640Z,23.04
2019-06-07T20:34:55.159Z,22.96
2019-06-07T20:37:27.842Z,22.92
2019-06-07T20:40:07.267Z,22.89
2019-06-07T20:42:37.004Z,22.85
2019-06-07T20:45:16.230Z,22.78
2019-06-07T20:47:48.509Z,22.82
2019-06-07T20:50:31.790Z,22.76
2019-06-07T20:53:05.138Z,22.70
2019-06-07T20:55:37.605Z,22.63
2019-06-07T20:58:13.062Z,22.68
2019-06-07T21:00:45.566Z,22.62
2019-06-07T21:03:18.132Z,22.66
2019-06-07T21:05:50.655Z,22.66
2019-06-07T21:08:23.191Z,22.60
2019-06-07T21:10:55.517Z,22.54
2019-06-07T21:13:28.468Z,22.56
2019-06-07T21:16:01.971Z,22.47
2019-06-07T21:18:34.525Z,22.32
2019-06-07T21:21:08.557Z,22.33
2019-06-07T21:23:41.466Z,22.24
2019-06-07T21:26:14.098Z,22.12
2019-06-07T21:28:49.240Z,22.19
2019-06-07T21:31:42.783Z,22.16
2019-06-07T21:34:12.678Z,22.15
2019-06-07T21:36:51.161Z,22.19
2019-06-07T21:39:23.458Z,22.09
2019-06-07T21:41:56.761Z,22.09
2019-06-07T21:44:31.659Z,22.07
2019-06-07T21:47:04.334Z,22.19
2019-06-07T21:49:36.733Z,22.23
2019-06-07T21:52:09.162Z,22.20
2019-06-07T21:54:41.667Z,22.22
2019-06-07T21:57:18.700Z,22.21
2019-06-07T21:59:50.899Z,22.17
2019-06-07T22:02:23.367Z,22.21
2019-06-07T22:04:55.626Z,22.30
2019-06-07T22:07:28.312Z,22.26
2019-06-07T22:10:00.656Z,22.19
2019-06-07T22:12:33.641Z,22.19
2019-06-07T22:15:23.398Z,22.26
2019-06-07T22:17:43.507Z,22.31
2019-06-07T22:20:16.643Z,22.43
2019-06-07T22:22:48.938Z,22.45
2019-06-07T22:25:27.844Z,22.47
2019-06-07T22:28:02.283Z,22.47
2019-06-07T22:30:34.791Z,22.44
2019-06-07T22:33:08.571Z,22.47
2019-06-07T22:35:43.872Z,22.46
2019-06-07T22:38:18.507Z,22.43
2019-06-07T22:40:50.948Z,22.44
2019-06-07T22:43:24.228Z,22.45
2019-06-07T22:45:57.279Z,22.42
2019-06-07T22:48:29.641Z,22.35
2019-06-07T22:51:06.421Z,22.26
2019-06-07T22:53:39.186Z,22.26
2019-06-07T22:56:13.924Z,22.26
2019-06-07T22:58:50.957Z,22.22
2019-06-07T23:01:26.463Z,22.17
2019-06-07T23:04:01.035Z,22.21
2019-06-07T23:06:41.258Z,22.15
2019-06-07T23:09:14.914Z,22.05
2019-06-07T23:11:47.362Z,22.14
2019-06-07T23:14:19.688Z,22.05
2019-06-07T23:16:55.850Z,22.01
2019-06-07T23:19:27.112Z,21.96
2019-06-07T23:21:59.384Z,21.90
2019-06-07T23:24:35.157Z,21.90
2019-06-07T23:27:08.599Z,21.83
2019-06-07T23:29:48.018Z,21.77
2019-06-07T23:32:22.757Z,21.76
2019-06-07T23:34:55.808Z,21.85
2019-06-07T23:37:29.866Z,21.80
2019-06-07T23:40:02.255Z,21.73
2019-06-07T23:42:34.556Z,21.74
2019-06-07T23:45:06.900Z,21.68
2019-06-07T23:47:40.030Z,21.71
2019-06-07T23:50:14.062Z,21.75
2019-06-07T23:52:46.437Z,21.76
2019-06-07T23:55:20.074Z,21.71
2019-06-07T23:57:52.749Z,21.69
